Terminal Aerodrome Forecast
Issued by NWS Quad Cities IA IL

Home | Current Version | Previous Version | Text Only | Print | Product List | Glossary On
Versions: 1 2 3 4 5 6 7 8 9 10 11 12 13 14 15 16 17
000
FTUS43 KDVN 290901 AAB
TAFMLI
TAF AMD
KMLI 290901Z 2909/3006 32005KT P6SM OVC004
     FM291500 35007KT P6SM BKN030
     FM291900 01009KT P6SM BKN040=

USA.gov is the U.S. government's official web portal to all federal, state and local government web resources and services.